| time (UTC) | temp F | wind direction | speed MPH | gust MPH | rain 1hr in | rain 24hr in | rain mn in | humidity % | barometer mb |
| 20260904174003 | 74 | 211 | 13.0 | 20.0 | 0.00 | 0.00 | 0.00 | 53 | 1022.2 |
| 20260904173504 | 76 | 116 | 9.0 | 18.0 | 0.00 | 0.00 | 0.00 | 53 | 1022.2 |
| 20260904173004 | 74 | 177 | 8.0 | 15.0 | 0.00 | 0.00 | 0.00 | 56 | 1022.1 |
| 20260904172504 | 74 | 159 | 10.0 | 22.0 | 0.00 | 0.00 | 0.00 | 55 | 1022.2 |
| 20260904172003 | 74 | 221 | 11.0 | 20.0 | 0.00 | 0.00 | 0.00 | 57 | 1022.1 |
| 20260904171503 | 75 | 176 | 8.0 | 17.0 | 0.00 | 0.00 | 0.00 | 55 | 1022.0 |
| 20260904171004 | 74 | 211 | 8.0 | 15.0 | 0.00 | 0.00 | 0.00 | 58 | 1022.2 |
| 20260904170504 | 73 | 224 | 11.0 | 12.0 | 0.00 | 0.00 | 0.00 | 59 | 1022.1 |
| 20260904170004 | 73 | 133 | 11.0 | 21.0 | 0.00 | 0.00 | 0.00 | 60 | 1022.1 |
| 20260904165504 | 73 | 161 | 9.0 | 19.0 | 0.00 | 0.00 | 0.00 | 59 | 1022.1 |
| 20260904165003 | 73 | 178 | 6.0 | 17.0 | 0.00 | 0.00 | 0.00 | 60 | 1022.1 |
| 20260904164503 | 73 | 244 | 3.0 | 18.0 | 0.00 | 0.00 | 0.00 | 60 | 1022.0 |
| 20260904164003 | 72 | 130 | 7.0 | 20.0 | 0.00 | 0.00 | 0.00 | 61 | 1021.8 |
| 20260904163504 | 73 | 169 | 3.0 | 16.0 | 0.00 | 0.00 | 0.00 | 61 | 1021.8 |
| 20260904163004 | 72 | 139 | 14.0 | 16.0 | 0.00 | 0.00 | 0.00 | 62 | 1021.7 |
| 20260904162504 | 72 | 132 | 15.0 | 19.0 | 0.00 | 0.00 | 0.00 | 63 | 1021.7 |
| 20260904162003 | 72 | 134 | 3.0 | 12.0 | 0.00 | 0.00 | 0.00 | 62 | 1021.8 |
| 20260904161504 | 71 | 163 | 9.0 | 14.0 | 0.00 | 0.00 | 0.00 | 64 | 1021.9 |
| 20260904161004 | 71 | 224 | 10.0 | 16.0 | 0.00 | 0.00 | 0.00 | 63 | 1021.7 |
| 20260904160503 | 71 | 159 | 20.0 | 29.0 | 0.00 | 0.00 | 0.00 | 64 | 1021.7 |
| 20260904160003 | 70 | 125 | 11.0 | 16.0 | 0.00 | 0.00 | 0.00 | 65 | 1021.7 |
| 20260904155504 | 70 | 162 | 13.0 | 20.0 | 0.00 | 0.00 | 0.00 | 66 | 1021.7 |
| 20260904155003 | 70 | 201 | 12.0 | 18.0 | 0.00 | 0.00 | 0.00 | 67 | 1021.6 |
| 20260904154503 | 70 | 146 | 9.0 | 22.0 | 0.00 | 0.00 | 0.00 | 68 | 1021.5 |
| 20260904154004 | 70 | 150 | 8.0 | 19.0 | 0.00 | 0.00 | 0.00 | 69 | 1021.6 |
| 20260904153504 | 70 | 140 | 3.0 | 13.0 | 0.00 | 0.00 | 0.00 | 69 | 1021.6 |
| 20260904153004 | 69 | 112 | 10.0 | 26.0 | 0.00 | 0.00 | 0.00 | 71 | 1021.6 |
| 20260904152504 | 69 | 208 | 11.0 | 13.0 | 0.00 | 0.00 | 0.00 | 71 | 1021.4 |
| 20260904152003 | 68 | 147 | 11.0 | 21.0 | 0.00 | 0.00 | 0.00 | 74 | 1021.5 |
| 20260904151503 | 68 | 104 | 7.0 | 17.0 | 0.00 | 0.00 | 0.00 | 76 | 1021.4 |
| 20260904151004 | 68 | 171 | 8.0 | 18.0 | 0.00 | 0.00 | 0.00 | 76 | 1021.5 |
| 20260904150504 | 68 | 103 | 11.0 | 18.0 | 0.00 | 0.00 | 0.00 | 77 | 1021.4 |
| 20260904150004 | 68 | 164 | 5.0 | 11.0 | 0.00 | 0.00 | 0.00 | 78 | 1021.1 |
| 20260904145504 | 68 | 181 | 5.0 | 18.0 | 0.00 | 0.00 | 0.00 | 78 | 1021.5 |
| 20260904145004 | 68 | 144 | 9.0 | 13.0 | 0.00 | 0.00 | 0.00 | 79 | 1021.1 |
| 20260904144504 | 67 | 130 | 6.0 | 20.0 | 0.00 | 0.00 | 0.00 | 79 | 1021.3 |
| 20260904144004 | 67 | 143 | 10.0 | 20.0 | 0.00 | 0.00 | 0.00 | 79 | 1021.4 |
| 20260904143504 | 66 | 131 | 14.0 | 19.0 | 0.00 | 0.00 | 0.00 | 80 | 1021.0 |
| 20260904143004 | 66 | 117 | 9.0 | 20.0 | 0.00 | 0.00 | 0.00 | 81 | 1021.3 |
| 20260904142004 | 66 | 214 | 4.0 | 11.0 | 0.00 | 0.00 | 0.00 | 82 | 1021.1 |
| 20260904141504 | 65 | 135 | 9.0 | 11.0 | 0.00 | 0.00 | 0.00 | 83 | 1021.0 |
| 20260904141003 | 65 | 167 | 4.0 | 7.0 | 0.00 | 0.00 | 0.00 | 84 | 1021.0 |
| 20260904140503 | 64 | 160 | 6.0 | 8.0 | 0.00 | 0.00 | 0.00 | 83 | 1020.8 |
| 20260904140004 | 64 | 137 | 5.0 | 9.0 | 0.00 | 0.00 | 0.00 | 83 | 1020.8 |
| 20260904135503 | 64 | 92 | 8.0 | 11.0 | 0.00 | 0.00 | 0.00 | 83 | 1020.7 |
| 20260904135003 | 64 | 186 | 3.0 | 7.0 | 0.00 | 0.00 | 0.00 | 82 | 1020.8 |
| 20260904134504 | 63 | 108 | 4.0 | 6.0 | 0.00 | 0.00 | 0.00 | 83 | 1020.8 |
| 20260904134003 | 63 | 94 | 5.0 | 5.0 | 0.00 | 0.00 | 0.00 | 82 | 1020.8 |
| 20260904133503 | 63 | 120 | 2.0 | 3.0 | 0.00 | 0.00 | 0.00 | 84 | 1020.8 |
| 20260904133003 | 62 | 76 | 3.0 | 3.0 | 0.00 | 0.00 | 0.00 | 85 | 1020.7 |
| 20260904132504 | 61 | 102 | 2.0 | 2.0 | 0.00 | 0.00 | 0.00 | 87 | 1020.7 |
| 20260904132004 | 60 | 120 | 2.0 | 2.0 | 0.00 | 0.00 | 0.00 | 88 | 1020.5 |
| 20260904131504 | 59 | 93 | 2.0 | 3.0 | 0.00 | 0.00 | 0.00 | 88 | 1020.5 |
| 20260904131003 | 59 | 269 | 0.0 | 2.0 | 0.00 | 0.00 | 0.00 | 88 | 1020.4 |
| 20260904130503 | 60 | 319 | 2.0 | 3.0 | 0.00 | 0.00 | 0.00 | 88 | 1020.3 |
| 20260904130004 | 59 | 351 | 0.0 | 2.0 | 0.00 | 0.00 | 0.00 | 88 | 1020.3 |
| 20260904125504 | 60 | 241 | 0.0 | 0.0 | 0.00 | 0.00 | 0.00 | 87 | 1020.3 |
| 20260904125004 | 60 | 176 | 2.0 | 2.0 | 0.00 | 0.00 | 0.00 | 86 | 1020.2 |
| 20260904124504 | 61 | 172 | 2.0 | 4.0 | 0.00 | 0.00 | 0.00 | 85 | 1020.2 |
| 20260904124003 | 61 | 138 | 4.0 | 8.0 | 0.00 | 0.00 | 0.00 | 85 | 1020.2 |
| 20260904123503 | 61 | 97 | 3.0 | 4.0 | 0.00 | 0.00 | 0.00 | 84 | 1020.2 |
| 20260904123004 | 61 | 91 | 6.0 | 11.0 | 0.00 | 0.00 | 0.00 | 84 | 1020.1 |
| 20260904122504 | 61 | 125 | 4.0 | 7.0 | 0.00 | 0.00 | 0.00 | 83 | 1020.2 |
| 20260904122004 | 61 | 115 | 4.0 | 6.0 | 0.00 | 0.00 | 0.00 | 82 | 1020.1 |
| 20260904121504 | 61 | 105 | 3.0 | 6.0 | 0.00 | 0.00 | 0.00 | 82 | 1020.1 |
| 20260904121003 | 61 | 109 | 2.0 | 4.0 | 0.00 | 0.00 | 0.00 | 81 | 1020.0 |
| 20260904120503 | 62 | 111 | 4.0 | 5.0 | 0.00 | 0.00 | 0.00 | 81 | 1019.9 |
| 20260904120004 | 62 | 102 | 4.0 | 5.0 | 0.00 | 0.00 | 0.00 | 80 | 1019.9 |
| 20260904114504 | 63 | 129 | 8.0 | 10.0 | 0.00 | 0.00 | 0.00 | 78 | 1020.1 |
| 20260904114004 | 63 | 167 | 2.0 | 3.0 | 0.00 | 0.00 | 0.00 | 76 | 1020.1 |
| 20260904113504 | 63 | 149 | 3.0 | 3.0 | 0.00 | 0.00 | 0.00 | 76 | 1020.0 |
| 20260904113003 | 64 | 189 | 6.0 | 9.0 | 0.00 | 0.00 | 0.00 | 75 | 1020.1 |
| 20260904112504 | 64 | 199 | 9.0 | 13.0 | 0.00 | 0.00 | 0.00 | 74 | 1020.2 |
| 20260904112004 | 64 | 185 | 3.0 | 6.0 | 0.00 | 0.00 | 0.00 | 74 | 1019.9 |
| 20260904111503 | 64 | 205 | 8.0 | 9.0 | 0.00 | 0.00 | 0.00 | 75 | 1020.0 |
| 20260904111003 | 64 | 147 | 4.0 | 8.0 | 0.00 | 0.00 | 0.00 | 74 | 1020.1 |
| 20260904110504 | 64 | 155 | 5.0 | 11.0 | 0.00 | 0.00 | 0.00 | 74 | 1019.8 |
| 20260904104504 | 64 | 166 | 11.0 | 12.0 | 0.00 | 0.00 | 0.00 | 73 | 1019.7 |
| 20260904104004 | 64 | 182 | 3.0 | 10.0 | 0.00 | 0.00 | 0.00 | 73 | 1019.6 |
| 20260904103504 | 65 | 144 | 10.0 | 12.0 | 0.00 | 0.00 | 0.00 | 73 | 1019.5 |
| 20260904103003 | 65 | 145 | 9.0 | 11.0 | 0.00 | 0.00 | 0.00 | 73 | 1019.8 |
| 20260904102503 | 65 | 180 | 7.0 | 8.0 | 0.00 | 0.00 | 0.00 | 73 | 1019.8 |
| 20260904101004 | 65 | 148 | 6.0 | 9.0 | 0.00 | 0.00 | 0.00 | 70 | 1019.6 |
| 20260904100504 | 65 | 194 | 10.0 | 15.0 | 0.00 | 0.00 | 0.00 | 69 | 1019.6 |
| 20260904100005 | 65 | 166 | 4.0 | 7.0 | 0.00 | 0.00 | 0.00 | 68 | 1019.6 |
| 20260904095503 | 65 | 134 | 4.0 | 6.0 | 0.00 | 0.00 | 0.00 | 68 | 1019.6 |
| 20260904095003 | 65 | 204 | 4.0 | 13.0 | 0.00 | 0.00 | 0.00 | 68 | 1019.4 |
| 20260904094504 | 65 | 116 | 5.0 | 7.0 | 0.00 | 0.00 | 0.00 | 68 | 1019.4 |
| 20260904094003 | 66 | 162 | 5.0 | 5.0 | 0.00 | 0.00 | 0.00 | 68 | 1019.4 |
| 20260904093504 | 65 | 168 | 6.0 | 6.0 | 0.00 | 0.00 | 0.00 | 69 | 1019.4 |
| 20260904093004 | 65 | 158 | 5.0 | 6.0 | 0.00 | 0.00 | 0.00 | 69 | 1019.7 |
| 20260904092503 | 66 | 147 | 6.0 | 11.0 | 0.00 | 0.00 | 0.00 | 68 | 1019.7 |
| 20260904092004 | 66 | 184 | 5.0 | 5.0 | 0.00 | 0.00 | 0.00 | 68 | 1019.5 |
| 20260904091504 | 66 | 194 | 5.0 | 10.0 | 0.00 | 0.00 | 0.00 | 68 | 1019.6 |
| 20260904091004 | 65 | 120 | 6.0 | 6.0 | 0.00 | 0.00 | 0.00 | 69 | 1019.6 |
| 20260904090504 | 66 | 151 | 2.0 | 4.0 | 0.00 | 0.00 | 0.00 | 68 | 1019.5 |
| 20260904090004 | 66 | 184 | 3.0 | 3.0 | 0.00 | 0.00 | 0.00 | 67 | 1019.5 |
| 20260904085503 | 65 | 113 | 4.0 | 4.0 | 0.00 | 0.00 | 0.00 | 68 | 1019.6 |
| 20260904085003 | 66 | 128 | 4.0 | 4.0 | 0.00 | 0.00 | 0.00 | 67 | 1019.7 |
| 20260904084503 | 66 | 149 | 2.0 | 5.0 | 0.00 | 0.00 | 0.00 | 66 | 1019.5 |
| 20260904084003 | 66 | 152 | 5.0 | 5.0 | 0.00 | 0.00 | 0.00 | 64 | 1019.6 |
| 20260904083503 | 67 | 139 | 3.0 | 4.0 | 0.00 | 0.00 | 0.00 | 63 | 1019.8 |
| 20260904081503 | 67 | 212 | 2.0 | 5.0 | 0.00 | 0.00 | 0.00 | 57 | 1019.8 |
| 20260904081003 | 68 | 198 | 6.0 | 7.0 | 0.00 | 0.00 | 0.00 | 55 | 1019.9 |
| 20260904080503 | 67 | 219 | 4.0 | 7.0 | 0.00 | 0.00 | 0.00 | 55 | 1019.7 |
| 20260904080004 | 67 | 167 | 2.0 | 4.0 | 0.00 | 0.00 | 0.00 | 55 | 1019.8 |
| 20260904075504 | 67 | 186 | 5.0 | 8.0 | 0.00 | 0.00 | 0.00 | 55 | 1019.8 |
| 20260904075004 | 67 | 236 | 3.0 | 5.0 | 0.00 | 0.00 | 0.00 | 56 | 1019.8 |
| 20260904074504 | 67 | 207 | 2.0 | 5.0 | 0.00 | 0.00 | 0.00 | 56 | 1019.8 |
| 20260904074003 | 67 | 185 | 3.0 | 4.0 | 0.00 | 0.00 | 0.00 | 57 | 1019.9 |
| 20260904073504 | 67 | 218 | 7.0 | 7.0 | 0.00 | 0.00 | 0.00 | 58 | 1019.9 |
| 20260904073003 | 67 | 194 | 3.0 | 5.0 | 0.00 | 0.00 | 0.00 | 58 | 1020.0 |
| 20260904072503 | 67 | 264 | 3.0 | 3.0 | 0.00 | 0.00 | 0.00 | 58 | 1019.9 |
| 20260904072004 | 67 | 195 | 2.0 | 2.0 | 0.00 | 0.00 | 0.00 | 58 | 1019.9 |
| 20260904071503 | 67 | 246 | 0.0 | 2.0 | 0.00 | 0.00 | 0.00 | 57 | 1019.8 |
| 20260904071003 | 67 | 144 | 2.0 | 2.0 | 0.00 | 0.00 | 0.00 | 57 | 1019.8 |
| 20260904070504 | 68 | 234 | 3.0 | 3.0 | 0.00 | 0.00 | 0.00 | 53 | 1019.8 |
| 20260904070004 | 68 | 276 | 4.0 | 5.0 | 0.00 | 0.00 | 0.00 | 53 | 1019.9 |
| 20260904065503 | 68 | 256 | 4.0 | 4.0 | 0.00 | 0.00 | 0.00 | 51 | 1019.9 |
| 20260904065004 | 68 | 221 | 3.0 | 6.0 | 0.00 | 0.00 | 0.00 | 51 | 1019.6 |
| 20260904063003 | 68 | 208 | 5.0 | 5.0 | 0.00 | 0.00 | 0.00 | 50 | 1020.0 |
| 20260904062503 | 68 | 190 | 5.0 | 7.0 | 0.00 | 0.00 | 0.00 | 50 | 1019.8 |
| 20260904062004 | 68 | 195 | 6.0 | 8.0 | 0.00 | 0.00 | 0.00 | 50 | 1019.8 |
| 20260904061503 | 69 | 184 | 3.0 | 7.0 | 0.00 | 0.00 | 0.00 | 50 | 1019.8 |
| 20260904061004 | 69 | 203 | 5.0 | 9.0 | 0.00 | 0.00 | 0.00 | 49 | 1019.8 |
| 20260904060504 | 69 | 222 | 7.0 | 8.0 | 0.00 | 0.00 | 0.00 | 50 | 1019.9 |
| 20260904060003 | 69 | 207 | 7.0 | 8.0 | 0.00 | 0.00 | 0.00 | 52 | 1019.8 |
| 20260904055503 | 69 | 226 | 7.0 | 7.0 | 0.00 | 0.00 | 0.00 | 56 | 1019.8 |
| 20260904055003 | 69 | 218 | 4.0 | 8.0 | 0.00 | 0.00 | 0.00 | 61 | 1019.8 |
| 20260904054504 | 69 | 204 | 3.0 | 8.0 | 0.00 | 0.00 | 0.00 | 62 | 1019.7 |
| 20260904054004 | 70 | 233 | 4.0 | 8.0 | 0.00 | 0.00 | 0.00 | 62 | 1019.8 |
| 20260904053504 | 70 | 186 | 4.0 | 10.0 | 0.00 | 0.00 | 0.00 | 62 | 1019.6 |
| 20260904053004 | 71 | 260 | 8.0 | 17.0 | 0.00 | 0.00 | 0.00 | 62 | 1019.8 |
| 20260904052504 | 71 | 187 | 14.0 | 15.0 | 0.00 | 0.00 | 0.00 | 62 | 1019.6 |
| 20260904052004 | 71 | 193 | 7.0 | 16.0 | 0.00 | 0.00 | 0.00 | 62 | 1019.7 |
| 20260904044504 | 71 | 216 | 7.0 | 8.0 | 0.00 | 0.00 | 0.00 | 57 | 1019.9 |
| 20260904044004 | 71 | 211 | 5.0 | 5.0 | 0.00 | 0.00 | 0.00 | 55 | 1019.7 |
| 20260904043504 | 71 | 185 | 5.0 | 7.0 | 0.00 | 0.00 | 0.00 | 55 | 1019.8 |
| 20260904043004 | 71 | 115 | 3.0 | 8.0 | 0.00 | 0.00 | 0.00 | 54 | 1019.9 |
| 20260904042503 | 71 | 126 | 10.0 | 10.0 | 0.00 | 0.00 | 0.00 | 54 | 1019.7 |
| 20260904042004 | 72 | 183 | 5.0 | 10.0 | 0.00 | 0.00 | 0.00 | 53 | 1019.7 |
| 20260904041504 | 72 | 209 | 10.0 | 10.0 | 0.00 | 0.00 | 0.00 | 53 | 1019.7 |
| 20260904041004 | 72 | 180 | 3.0 | 13.0 | 0.00 | 0.00 | 0.00 | 53 | 1019.5 |
| 20260904040504 | 72 | 177 | 7.0 | 11.0 | 0.00 | 0.00 | 0.00 | 52 | 1019.5 |
| 20260904040004 | 72 | 285 | 5.0 | 11.0 | 0.00 | 0.00 | 0.00 | 51 | 1019.5 |
| 20260904035503 | 72 | 220 | 6.0 | 13.0 | 0.00 | 0.00 | 0.00 | 51 | 1019.6 |
| 20260904033503 | 72 | 189 | 5.0 | 12.0 | 0.00 | 0.00 | 0.00 | 49 | 1019.3 |
| 20260904033004 | 72 | 204 | 10.0 | 14.0 | 0.00 | 0.00 | 0.00 | 49 | 1019.6 |
| 20260904032504 | 72 | 191 | 10.0 | 18.0 | 0.00 | 0.00 | 0.00 | 49 | 1019.6 |
| 20260904032003 | 72 | 211 | 15.0 | 17.0 | 0.00 | 0.00 | 0.00 | 48 | 1019.3 |
| 20260904031503 | 72 | 180 | 13.0 | 18.0 | 0.00 | 0.00 | 0.00 | 49 | 1019.4 |
| 20260904031004 | 72 | 226 | 10.0 | 16.0 | 0.00 | 0.00 | 0.00 | 49 | 1019.3 |
| 20260904030503 | 72 | 191 | 9.0 | 12.0 | 0.00 | 0.00 | 0.00 | 49 | 1019.3 |
| 20260904030004 | 72 | 185 | 8.0 | 11.0 | 0.00 | 0.00 | 0.00 | 49 | 1019.5 |
| 20260904025504 | 72 | 218 | 9.0 | 15.0 | 0.00 | 0.00 | 0.00 | 49 | 1019.5 |
| 20260904025004 | 72 | 199 | 8.0 | 9.0 | 0.00 | 0.00 | 0.00 | 50 | 1019.3 |
| 20260904024504 | 72 | 199 | 6.0 | 13.0 | 0.00 | 0.00 | 0.00 | 50 | 1019.2 |
| 20260904024004 | 72 | 197 | 9.0 | 15.0 | 0.00 | 0.00 | 0.00 | 50 | 1019.3 |
| 20260904023504 | 72 | 218 | 8.0 | 14.0 | 0.00 | 0.00 | 0.00 | 50 | 1019.3 |
| 20260904023004 | 72 | 218 | 6.0 | 11.0 | 0.00 | 0.00 | 0.00 | 51 | 1019.0 |
| 20260904022504 | 72 | 217 | 11.0 | 11.0 | 0.00 | 0.00 | 0.00 | 51 | 1019.3 |
| 20260904022003 | 72 | 188 | 5.0 | 9.0 | 0.00 | 0.00 | 0.00 | 51 | 1019.2 |
| 20260904021503 | 72 | 184 | 8.0 | 10.0 | 0.00 | 0.00 | 0.00 | 51 | 1019.0 |
| 20260904021004 | 73 | 175 | 4.0 | 12.0 | 0.00 | 0.00 | 0.00 | 50 | 1019.2 |
| 20260904015004 | 74 | 198 | 5.0 | 12.0 | 0.00 | 0.00 | 0.00 | 48 | 1019.0 |
| 20260904014504 | 74 | 206 | 16.0 | 17.0 | 0.00 | 0.00 | 0.00 | 47 | 1019.0 |
| 20260904014004 | 74 | 213 | 12.0 | 21.0 | 0.00 | 0.00 | 0.00 | 46 | 1019.0 |
| 20260904012004 | 76 | 206 | 9.0 | 11.0 | 0.00 | 0.00 | 0.00 | 45 | 1019.0 |
| 20260904011504 | 76 | 163 | 5.0 | 17.0 | 0.00 | 0.00 | 0.00 | 45 | 1018.8 |
| 20260904011004 | 76 | 182 | 4.0 | 19.0 | 0.00 | 0.00 | 0.00 | 45 | 1018.9 |
| 20260904010504 | 76 | 198 | 9.0 | 18.0 | 0.00 | 0.00 | 0.00 | 45 | 1019.2 |
| 20260904010004 | 76 | 200 | 20.0 | 25.0 | 0.00 | 0.00 | 0.00 | 44 | 1019.0 |
| 20260904005504 | 76 | 209 | 17.0 | 22.0 | 0.00 | 0.00 | 0.00 | 43 | 1019.0 |
| 20260904005003 | 76 | 180 | 13.0 | 25.0 | 0.00 | 0.00 | 0.00 | 44 | 1019.2 |
| 20260904004503 | 78 | 203 | 8.0 | 20.0 | 0.00 | 0.00 | 0.00 | 42 | 1019.0 |
| 20260904004003 | 77 | 167 | 6.0 | 14.0 | 0.00 | 0.00 | 0.00 | 45 | 1019.3 |
| 20260904003504 | 77 | 181 | 12.0 | 15.0 | 0.00 | 0.00 | 0.00 | 45 | 1019.2 |
| 20260904003004 | 77 | 185 | 10.0 | 26.0 | 0.00 | 0.00 | 0.00 | 45 | 1019.4 |
| 20260904002504 | 78 | 228 | 16.0 | 16.0 | 0.00 | 0.00 | 0.00 | 44 | 1019.2 |
| 20260904002004 | 77 | 218 | 11.0 | 26.0 | 0.00 | 0.00 | 0.00 | 45 | 1019.4 |
| 20260904001504 | 78 | 190 | 8.0 | 14.0 | 0.00 | 0.00 | 0.00 | 43 | 1019.3 |
| 20260904001004 | 78 | 205 | 3.0 | 16.0 | 0.00 | 0.00 | 0.00 | 43 | 1019.3 |
| 20260903235004 | 78 | 162 | 5.0 | 19.0 | 0.00 | 0.00 | 0.00 | 43 | 1019.2 |
| 20260903234504 | 78 | 216 | 8.0 | 12.0 | 0.00 | 0.00 | 0.00 | 44 | 1019.4 |
| 20260903234004 | 78 | 183 | 15.0 | 16.0 | 0.00 | 0.00 | 0.00 | 43 | 1019.3 |
| 20260903233503 | 78 | 186 | 12.0 | 22.0 | 0.00 | 0.00 | 0.00 | 44 | 1019.0 |
| 20260903233003 | 78 | 154 | 10.0 | 14.0 | 0.00 | 0.00 | 0.00 | 44 | 1019.3 |
| 20260903232503 | 78 | 165 | 7.0 | 19.0 | 0.00 | 0.00 | 0.00 | 44 | 1019.2 |
| 20260903232004 | 78 | 173 | 10.0 | 21.0 | 0.00 | 0.00 | 0.00 | 43 | 1019.3 |
| 20260903231504 | 79 | 155 | 8.0 | 19.0 | 0.00 | 0.00 | 0.00 | 42 | 1019.4 |
| 20260903231004 | 80 | 212 | 10.0 | 11.0 | 0.00 | 0.00 | 0.00 | 40 | 1019.4 |
| 20260903230504 | 79 | 136 | 10.0 | 18.0 | 0.00 | 0.00 | 0.00 | 41 | 1019.4 |
| 20260903230004 | 78 | 179 | 9.0 | 17.0 | 0.00 | 0.00 | 0.00 | 43 | 1019.6 |
| 20260903225504 | 77 | 180 | 11.0 | 16.0 | 0.00 | 0.00 | 0.00 | 44 | 1019.7 |
| 20260903225003 | 77 | 220 | 10.0 | 17.0 | 0.00 | 0.00 | 0.00 | 43 | 1019.6 |
| 20260903224503 | 76 | 214 | 8.0 | 10.0 | 0.00 | 0.00 | 0.00 | 44 | 1019.7 |
| 20260903224004 | 76 | 207 | 8.0 | 24.0 | 0.00 | 0.00 | 0.00 | 44 | 1019.7 |
| 20260903223503 | 77 | 238 | 9.0 | 12.0 | 0.00 | 0.00 | 0.00 | 44 | 1019.8 |
| 20260903223004 | 76 | 191 | 11.0 | 21.0 | 0.00 | 0.00 | 0.00 | 45 | 1019.9 |
| 20260903222503 | 76 | 177 | 6.0 | 19.0 | 0.00 | 0.00 | 0.00 | 45 | 1019.8 |
| 20260903222003 | 78 | 203 | 14.0 | 19.0 | 0.00 | 0.00 | 0.00 | 44 | 1019.8 |
| 20260903221504 | 77 | 194 | 7.0 | 19.0 | 0.00 | 0.00 | 0.00 | 45 | 1019.9 |
| 20260903221003 | 76 | 211 | 8.0 | 16.0 | 0.00 | 0.00 | 0.00 | 45 | 1020.0 |
| 20260903220503 | 78 | 167 | 6.0 | 19.0 | 0.00 | 0.00 | 0.00 | 43 | 1020.1 |
| 20260903220004 | 77 | 185 | 8.0 | 14.0 | 0.00 | 0.00 | 0.00 | 45 | 1020.1 |
| 20260903215504 | 77 | 184 | 7.0 | 16.0 | 0.00 | 0.00 | 0.00 | 45 | 1020.1 |
| 20260903215004 | 77 | 119 | 9.0 | 11.0 | 0.00 | 0.00 | 0.00 | 46 | 1020.2 |
| 20260903214504 | 80 | 136 | 19.0 | 23.0 | 0.00 | 0.00 | 0.00 | 43 | 1020.2 |
| 20260903212503 | 76 | 213 | 9.0 | 13.0 | 0.00 | 0.00 | 0.00 | 47 | 1020.3 |
| 20260903212003 | 78 | 168 | 8.0 | 20.0 | 0.00 | 0.00 | 0.00 | 43 | 1020.3 |
| 20260903211503 | 78 | 131 | 20.0 | 22.0 | 0.00 | 0.00 | 0.00 | 42 | 1020.4 |
| 20260903211003 | 76 | 155 | 10.0 | 14.0 | 0.00 | 0.00 | 0.00 | 45 | 1020.5 |
| 20260903210503 | 78 | 218 | 6.0 | 12.0 | 0.00 | 0.00 | 0.00 | 44 | 1020.2 |
| 20260903210004 | 77 | 225 | 11.0 | 20.0 | 0.00 | 0.00 | 0.00 | 45 | 1020.4 |
| 20260903205503 | 76 | 189 | 11.0 | 19.0 | 0.00 | 0.00 | 0.00 | 46 | 1020.5 |
| 20260903205003 | 76 | 209 | 18.0 | 29.0 | 0.00 | 0.00 | 0.00 | 44 | 1020.4 |
| 20260903204504 | 77 | 204 | 9.0 | 22.0 | 0.00 | 0.00 | 0.00 | 42 | 1020.4 |
| 20260903204004 | 77 | 248 | 13.0 | 23.0 | 0.00 | 0.00 | 0.00 | 41 | 1020.6 |
| 20260903203504 | 77 | 180 | 9.0 | 20.0 | 0.00 | 0.00 | 0.00 | 43 | 1020.4 |
| 20260903203004 | 76 | 186 | 10.0 | 25.0 | 0.00 | 0.00 | 0.00 | 44 | 1020.6 |
| 20260903202503 | 78 | 221 | 25.0 | 26.0 | 0.00 | 0.00 | 0.00 | 42 | 1020.5 |
| 20260903202003 | 78 | 185 | 13.0 | 22.0 | 0.00 | 0.00 | 0.00 | 41 | 1020.6 |
| 20260903201503 | 76 | 154 | 3.0 | 19.0 | 0.00 | 0.00 | 0.00 | 46 | 1020.6 |
| 20260903201003 | 76 | 210 | 7.0 | 22.0 | 0.00 | 0.00 | 0.00 | 45 | 1020.6 |
| 20260903200503 | 76 | 180 | 10.0 | 14.0 | 0.00 | 0.00 | 0.00 | 45 | 1020.5 |
| 20260903200003 | 78 | 228 | 2.0 | 10.0 | 0.00 | 0.00 | 0.00 | 44 | 1020.5 |
| 20260903195503 | 76 | 191 | 9.0 | 19.0 | 0.00 | 0.00 | 0.00 | 47 | 1020.7 |
| 20260903195004 | 76 | 180 | 11.0 | 21.0 | 0.00 | 0.00 | 0.00 | 46 | 1020.8 |
| 20260903194504 | 76 | 149 | 10.0 | 15.0 | 0.00 | 0.00 | 0.00 | 46 | 1020.7 |
| 20260903194003 | 77 | 162 | 7.0 | 15.0 | 0.00 | 0.00 | 0.00 | 45 | 1020.9 |
| 20260903193504 | 77 | 212 | 7.0 | 13.0 | 0.00 | 0.00 | 0.00 | 45 | 1020.9 |
| 20260903193004 | 75 | 234 | 11.0 | 19.0 | 0.00 | 0.00 | 0.00 | 47 | 1020.8 |
| 20260903192504 | 76 | 243 | 14.0 | 18.0 | 0.00 | 0.00 | 0.00 | 45 | 1020.8 |
| 20260903192004 | 78 | 193 | 8.0 | 20.0 | 0.00 | 0.00 | 0.00 | 43 | 1020.9 |
| 20260903190003 | 78 | 105 | 5.0 | 15.0 | 0.00 | 0.00 | 0.00 | 44 | 1021.1 |
| 20260903185503 | 76 | 145 | 8.0 | 17.0 | 0.00 | 0.00 | 0.00 | 44 | 1021.3 |
| 20260903185004 | 77 | 165 | 6.0 | 15.0 | 0.00 | 0.00 | 0.00 | 44 | 1021.4 |
| 20260903184504 | 77 | 146 | 6.0 | 9.0 | 0.00 | 0.00 | 0.00 | 44 | 1021.4 |
| 20260903184004 | 76 | 182 | 16.0 | 19.0 | 0.00 | 0.00 | 0.00 | 44 | 1021.6 |
| 20260903183504 | 76 | 231 | 17.0 | 24.0 | 0.00 | 0.00 | 0.00 | 44 | 1021.4 |
| 20260903181504 | 77 | 233 | 5.0 | 21.0 | 0.00 | 0.00 | 0.00 | 42 | 1021.7 |
| 20260903181004 | 76 | 200 | 12.0 | 22.0 | 0.00 | 0.00 | 0.00 | 42 | 1021.6 |
| 20260903180504 | 76 | 136 | 17.0 | 24.0 | 0.00 | 0.00 | 0.00 | 42 | 1021.7 |
| 20260903180003 | 77 | 117 | 9.0 | 14.0 | 0.00 | 0.00 | 0.00 | 41 | 1021.5 |
| 20260903175504 | 76 | 145 | 10.0 | 13.0 | 0.00 | 0.00 | 0.00 | 41 | 1021.8 |
| 20260903175003 | 76 | 126 | 3.0 | 20.0 | 0.00 | 0.00 | 0.00 | 42 | 1022.0 |
| 20260903174503 | 77 | 143 | 8.0 | 18.0 | 0.00 | 0.00 | 0.00 | 41 | 1021.8 |